地図

経路データ

SID SEASON NUMBER BASIN SUBBASIN NAME ISO_TIME NATURE LAT LON WMO_WIND WMO_PRES WMO_AGENCY TRACK_TYPE DIST2LAND LANDFALL IFLAG USA_AGENCY USA_ATCF_ID USA_LAT USA_LON USA_RECORD USA_STATUS USA_WIND USA_PRES USA_SSHS USA_R34_NE USA_R34_SE USA_R34_SW USA_R34_NW USA_R50_NE USA_R50_SE USA_R50_SW USA_R50_NW USA_R64_NE USA_R64_SE USA_R64_SW USA_R64_NW USA_POCI USA_ROCI USA_RMW USA_EYE TOKYO_LAT TOKYO_LON TOKYO_GRADE TOKYO_WIND TOKYO_PRES TOKYO_R50_DIR TOKYO_R50_LONG TOKYO_R50_SHORT TOKYO_R30_DIR TOKYO_R30_LONG TOKYO_R30_SHORT TOKYO_LAND CMA_LAT CMA_LON CMA_CAT CMA_WIND CMA_PRES HKO_LAT HKO_LON HKO_CAT HKO_WIND HKO_PRES NEWDELHI_LAT NEWDELHI_LON NEWDELHI_GRADE NEWDELHI_WIND NEWDELHI_PRES NEWDELHI_CI NEWDELHI_DP NEWDELHI_POCI REUNION_LAT REUNION_LON REUNION_TYPE REUNION_WIND REUNION_PRES REUNION_TNUM REUNION_CI REUNION_RMW REUNION_R34_NE REUNION_R34_SE REUNION_R34_SW REUNION_R34_NW REUNION_R50_NE REUNION_R50_SE REUNION_R50_SW REUNION_R50_NW REUNION_R64_NE REUNION_R64_SE REUNION_R64_SW REUNION_R64_NW BOM_LAT BOM_LON BOM_TYPE BOM_WIND BOM_PRES BOM_TNUM BOM_CI BOM_RMW BOM_R34_NE BOM_R34_SE BOM_R34_SW BOM_R34_NW BOM_R50_NE BOM_R50_SE BOM_R50_SW BOM_R50_NW BOM_R64_NE BOM_R64_SE BOM_R64_SW BOM_R64_NW BOM_ROCI BOM_POCI BOM_EYE BOM_POS_METHOD BOM_PRES_METHOD NADI_LAT NADI_LON NADI_CAT NADI_WIND NADI_PRES WELLINGTON_LAT WELLINGTON_LON WELLINGTON_WIND WELLINGTON_PRES DS824_LAT DS824_LON DS824_STAGE DS824_WIND DS824_PRES TD9636_LAT TD9636_LON TD9636_STAGE TD9636_WIND TD9636_PRES TD9635_LAT TD9635_LON TD9635_WIND TD9635_PRES TD9635_ROCI NEUMANN_LAT NEUMANN_LON NEUMANN_CLASS NEUMANN_WIND NEUMANN_PRES MLC_LAT MLC_LON MLC_CLASS MLC_WIND MLC_PRES USA_GUST BOM_GUST BOM_GUST_PER REUNION_GUST REUNION_GUST_PER USA_SEAHGT USA_SEARAD_NE USA_SEARAD_SE USA_SEARAD_SW USA_SEARAD_NW STORM_SPEED STORM_DIR
1902032S17431 1902 6 SI MM NOT_NAMED 1902-01-31 18:00:00 NR -17.2000 71.2000 main 1452 1428 __________O___ -1 -17.2000 71.2000 7 5 250
1902032S17431 1902 6 SI MM NOT_NAMED 1902-01-31 21:00:00 NR -17.2939 70.9392 main 1418 1395 __________P___ -1 -17.2939 70.9392 7 5 249
1902032S17431 1902 6 SI MM NOT_NAMED 1902-02-01 00:00:00 NR -17.3901 70.6726 main 1395 1361 __________P___ -1 -17.3901 70.6726 7 6 249
1902032S17431 1902 6 SI MM NOT_NAMED 1902-02-01 03:00:00 NR -17.4913 70.3947 main 1361 1328 __________P___ -1 -17.4913 70.3947 7 6 249
1902032S17431 1902 6 SI MM NOT_NAMED 1902-02-01 06:00:00 NR -17.6000 70.1000 main 1328 1294 __________O___ -1 -17.6000 70.1000 7 6 249
1902032S17431 1902 6 SI MM NOT_NAMED 1902-02-01 09:00:00 NR -17.7178 69.7853 main 1294 1260 __________P___ -1 -17.7178 69.7853 7 7 248
1902032S17431 1902 6 SI MM NOT_NAMED 1902-02-01 12:00:00 NR -17.8425 69.4575 main 1260 1214 __________P___ -1 -17.8425 69.4575 7 7 248
1902032S17431 1902 6 SI MM NOT_NAMED 1902-02-01 15:00:00 NR -17.9709 69.1259 main 1214 1180 __________P___ -1 -17.9709 69.1259 7 7 248
1902032S17431 1902 6 SI MM NOT_NAMED 1902-02-01 18:00:00 NR -18.1000 68.8000 main 1180 1147 __________O___ -1 -18.1000 68.8000 7 6 247
1902032S17431 1902 6 SI MM NOT_NAMED 1902-02-01 21:00:00 NR -18.2247 68.5048 main 1147 1113 __________P___ -1 -18.2247 68.5048 7 6 246
1902032S17431 1902 6 SI MM NOT_NAMED 1902-02-02 00:00:00 NR -18.3495 68.2147 main 1113 1078 __________P___ -1 -18.3495 68.2147 7 6 246
1902032S17431 1902 6 SI MM NOT_NAMED 1902-02-02 03:00:00 NR -18.4746 67.9173 main 1078 1044 __________P___ -1 -18.4746 67.9173 7 6 247
1902032S17431 1902 6 SI MM NOT_NAMED 1902-02-02 06:00:00 NR -18.6000 67.6000 main 1044 1011 __________O___ -1 -18.6000 67.6000 7 7 249
1902032S17431 1902 6 SI MM NOT_NAMED 1902-02-02 09:00:00 NR -18.7252 67.2303 main 1001 968 __________P___ -1 -18.7252 67.2303 7 8 251
1902032S17431 1902 6 SI MM NOT_NAMED 1902-02-02 12:00:00 NR -18.8503 66.8425 main 955 922 __________P___ -1 -18.8503 66.8425 7 8 251
1902032S17431 1902 6 SI MM NOT_NAMED 1902-02-02 15:00:00 NR -18.9752 66.4584 main 922 879 __________P___ -1 -18.9752 66.4584 7 7 250
1902032S17431 1902 6 SI MM NOT_NAMED 1902-02-02 18:00:00 NR -19.1000 66.1000 main 879 846 __________O___ -1 -19.1000 66.1000 7 6 248
1902032S17431 1902 6 SI MM NOT_NAMED 1902-02-02 21:00:00 NR -19.2160 65.8322 main 846 823 __________P___ -1 -19.2160 65.8322 7 5 244
1902032S17431 1902 6 SI MM NOT_NAMED 1902-02-03 00:00:00 NR -19.3338 65.5866 main 823 789 __________P___ -1 -19.3338 65.5866 7 5 243
1902032S17431 1902 6 SI MM NOT_NAMED 1902-02-03 03:00:00 NR -19.4597 65.3227 main 789 756 __________P___ -1 -19.4597 65.3227 7 6 244
1902032S17431 1902 6 SI MM NOT_NAMED 1902-02-03 06:00:00 NR -19.6000 65.0000 main 756 713 __________O___ -1 -19.6000 65.0000 7 8 248
1902032S17431 1902 6 SI MM NOT_NAMED 1902-02-03 09:00:00 NR -19.7528 64.5646 main 712 659 __________P___ -1 -19.7528 64.5646 7 9 250
1902032S17431 1902 6 SI MM NOT_NAMED 1902-02-03 12:00:00 NR -19.9204 64.0673 main 659 605 __________P___ -1 -19.9204 64.0673 7 10 250
1902032S17431 1902 6 SI MM NOT_NAMED 1902-02-03 15:00:00 NR -20.1027 63.5363 main 595 542 __________P___ -1 -20.1027 63.5363 7 11 249
1902032S17431 1902 6 SI MM NOT_NAMED 1902-02-03 18:00:00 NR -20.3000 63.0000 main 542 490 __________O___ -1 -20.3000 63.0000 7 11 247
1902032S17431 1902 6 SI MM NOT_NAMED 1902-02-03 21:00:00 NR -20.5146 62.4838 main 490 439 __________P___ -1 -20.5146 62.4838 7 11 245
1902032S17431 1902 6 SI MM NOT_NAMED 1902-02-04 00:00:00 NR -20.7424 61.9701 main 439 390 __________P___ -1 -20.7424 61.9701 7 11 244
1902032S17431 1902 6 SI MM NOT_NAMED 1902-02-04 03:00:00 NR -20.9740 61.4713 main 392 347 __________P___ -1 -20.9740 61.4713 7 10 243
1902032S17431 1902 6 SI MM NOT_NAMED 1902-02-04 06:00:00 NR -21.2000 61.0000 main 347 315 __________O___ -1 -21.2000 61.0000 7 9 243
1902032S17431 1902 6 SI MM NOT_NAMED 1902-02-04 09:00:00 NR -21.4025 60.5706 main 315 287 __________P___ -1 -21.4025 60.5706 7 9 243
1902032S17431 1902 6 SI MM NOT_NAMED 1902-02-04 12:00:00 NR -21.5991 60.1691 main 287 261 __________P___ -1 -21.5991 60.1691 7 8 242
1902032S17431 1902 6 SI MM NOT_NAMED 1902-02-04 15:00:00 NR -21.7963 59.7831 main 261 243 __________P___ -1 -21.7963 59.7831 7 8 241
1902032S17431 1902 6 SI MM NOT_NAMED 1902-02-04 18:00:00 NR -22.0000 59.4000 main 243 230 __________O___ -1 -22.0000 59.4000 7 8 240
1902032S17431 1902 6 SI MM NOT_NAMED 1902-02-04 21:00:00 NR -22.2147 59.0096 main 232 231 __________P___ -1 -22.2147 59.0096 7 9 239
1902032S17431 1902 6 SI MM NOT_NAMED 1902-02-05 00:00:00 NR -22.4385 58.6114 main 231 231 __________P___ -1 -22.4385 58.6114 7 9 239
1902032S17431 1902 6 SI MM NOT_NAMED 1902-02-05 03:00:00 NR -22.6681 58.2075 main 251 249 __________P___ -1 -22.6681 58.2075 7 9 238
1902032S17431 1902 6 SI MM NOT_NAMED 1902-02-05 06:00:00 NR -22.9000 57.8000 main 268 __________O___ -1 -22.9000 57.8000 7 9 238

IBTrACS Databaseについて

本データベースは、米国NOAAが公開する1842年以降の世界の熱帯低気圧のベストトラックデータアーカイブInternational Best Track Archive for Climate Stewardship (IBTrACS)を、ウェブで閲覧しやすい形式に変換したものです。

最終更新日:2021-12-03